Time;durP1;ratioP1;P1;durP2;ratioP2;P2;SDS_P1;SDS_P2;PMS_P1;PMS_P2;Temp;Humidity;BMP_temperature;BMP_pressure;BME280_temperature;BME280_humidity;BME280_pressure;Samples;Min_cycle;Max_cycle;Signal;HPM_P1;HPM_P2
2023/01/14 12:18:54;;;;;;;1.88;0.60;;;11.60;99.90;;;;;;4991160;27;121113;-78
2023/01/14 12:21:28;;;;;;;3.10;0.70;;;11.70;99.90;;;;;;5050875;28;20083;-78
2023/01/14 12:24:10;;;;;;;0.60;0.60;;;11.70;99.90;;;;;;4970864;28;20041;-79
2023/01/14 12:26:38;;;;;;;1.23;0.88;;;11.70;99.90;;;;;;5022165;28;20040;-78
2023/01/14 12:29:09;;;;;;;4.53;0.90;;;11.60;99.90;;;;;;5052414;28;20067;-78
2023/01/14 12:31:39;;;;;;;1.15;0.70;;;11.60;99.90;;;;;;5020950;28;20052;-79
2023/01/14 12:34:32;;;;;;;0.77;0.68;;;11.60;99.90;;;;;;5020937;28;20044;-77
2023/01/14 12:37:28;;;;;;;0.80;0.65;;;11.60;99.90;;;;;;5053799;28;20036;-80
2023/01/14 12:45:51;;;;;;;0.60;0.60;;;11.50;99.90;;;;;;5035787;28;20043;-78
2023/01/14 12:48:23;;;;;;;0.50;0.50;;;11.50;99.90;;;;;;4996378;28;20058;-80
2023/01/14 12:51:13;;;;;;;0.43;0.43;;;11.50;99.90;;;;;;5055477;28;20058;-80
2023/01/14 12:53:46;;;;;;;1.30;0.70;;;11.40;99.90;;;;;;5082468;28;20044;-79
2023/01/14 12:56:22;;;;;;;0.77;0.50;;;11.40;99.90;;;;;;5050372;28;20041;-80
2023/01/14 12:59:02;;;;;;;1.08;0.40;;;11.20;99.90;;;;;;5034398;28;20060;-80
2023/01/14 13:01:37;;;;;;;0.75;0.60;;;11.20;99.90;;;;;;5008991;28;20584;-78
2023/01/14 13:04:05;;;;;;;0.88;0.55;;;11.10;99.90;;;;;;5027743;28;20105;-79
2023/01/14 13:06:34;;;;;;;0.68;0.60;;;11.10;99.90;;;;;;5036273;28;20466;-80
2023/01/14 13:09:03;;;;;;;0.55;0.40;;;11.10;99.90;;;;;;5035272;28;20039;-80
2023/01/14 13:11:42;;;;;;;1.33;0.50;;;11.00;99.90;;;;;;5052783;28;20037;-80
2023/01/14 13:14:34;;;;;;;1.48;0.60;;;11.00;99.90;;;;;;5020143;28;20040;-79
2023/01/14 13:17:16;;;;;;;1.90;0.88;;;11.00;99.90;;;;;;5020208;28;20044;-80
2023/01/14 13:19:48;;;;;;;2.45;0.88;;;10.90;99.90;;;;;;5053490;28;20049;-80
2023/01/14 13:22:45;;;;;;;1.60;0.75;;;10.90;99.90;;;;;;5052148;28;20068;-80
2023/01/14 13:25:41;;;;;;;1.30;0.80;;;10.90;99.90;;;;;;5053651;28;20353;-77
2023/01/14 13:28:11;;;;;;;4.95;1.10;;;10.90;99.90;;;;;;5034478;28;20383;-79
2023/01/14 13:30:41;;;;;;;2.45;1.13;;;10.80;99.90;;;;;;5056381;28;20041;-79
2023/01/14 13:33:19;;;;;;;1.73;0.88;;;10.80;99.90;;;;;;5039629;28;20533;-79
2023/01/14 13:36:11;;;;;;;1.88;1.13;;;10.80;99.90;;;;;;5023075;28;20044;-80
2023/01/14 13:38:40;;;;;;;1.23;0.77;;;10.80;99.90;;;;;;5069254;28;20120;-79
2023/01/14 13:41:07;;;;;;;2.47;1.00;;;10.90;99.90;;;;;;5018784;28;20520;-79
2023/01/14 13:43:49;;;;;;;4.75;1.15;;;10.90;99.90;;;;;;4995327;28;20044;-79
2023/01/14 13:46:22;;;;;;;4.38;1.42;;;10.80;99.90;;;;;;5042133;28;20047;-79
2023/01/14 13:48:51;;;;;;;2.40;1.30;;;10.80;99.90;;;;;;5042044;28;20079;-79
2023/01/14 13:51:38;;;;;;;6.50;1.87;;;10.80;99.90;;;;;;5010363;28;20037;-80
2023/01/14 13:54:11;;;;;;;4.15;1.55;;;10.70;99.90;;;;;;5059276;28;20040;-78
2023/01/14 13:56:52;;;;;;;3.17;1.30;;;10.70;99.90;;;;;;5058221;28;20524;-78
2023/01/14 13:59:24;;;;;;;4.47;1.20;;;10.70;99.90;;;;;;5027788;28;20075;-77
2023/01/14 14:01:51;;;;;;;3.65;1.50;;;10.60;99.90;;;;;;5025145;28;20056;-79
2023/01/14 14:04:57;;;;;;;1.30;0.82;;;10.60;99.90;;;;;;5031795;28;20402;-78
2023/01/14 14:07:43;;;;;;;5.63;1.10;;;10.60;99.90;;;;;;5056008;28;20075;-77
2023/01/14 14:10:13;;;;;;;4.18;1.10;;;10.60;99.90;;;;;;5061215;28;20422;-77
2023/01/14 14:15:28;;;;;;;3.40;1.17;;;10.70;99.90;;;;;;5027058;28;20041;-78
2023/01/14 14:17:56;;;;;;;3.55;1.10;;;10.70;99.90;;;;;;5006159;28;20126;-78
2023/01/14 14:20:37;;;;;;;5.20;1.20;;;10.60;99.90;;;;;;5006299;28;20131;-77
2023/01/14 14:23:06;;;;;;;4.15;1.35;;;10.70;99.90;;;;;;5018312;28;20397;-78
2023/01/14 14:25:37;;;;;;;4.28;1.52;;;10.60;99.90;;;;;;5036499;28;20036;-77
2023/01/14 14:28:08;;;;;;;4.10;1.02;;;10.60;99.90;;;;;;5008858;28;20060;-79
2023/01/14 14:30:44;;;;;;;7.38;1.63;;;10.60;99.90;;;;;;5012542;28;20048;-77
2023/01/14 14:33:33;;;;;;;4.00;1.00;;;10.60;99.90;;;;;;5049631;28;20044;-79
2023/01/14 14:36:01;;;;;;;4.47;1.48;;;10.60;99.90;;;;;;5042764;28;20040;-76
2023/01/14 14:38:28;;;;;;;5.15;1.23;;;10.70;99.90;;;;;;5039573;28;20414;-76
2023/01/14 14:40:55;;;;;;;5.00;1.00;;;10.70;99.90;;;;;;5035984;28;20040;-77
2023/01/14 14:43:26;;;;;;;3.42;1.17;;;10.70;99.90;;;;;;5053730;28;20041;-77
2023/01/14 14:46:02;;;;;;;1.95;1.17;;;10.70;99.90;;;;;;5021277;28;20045;-77
2023/01/14 14:48:30;;;;;;;2.20;0.90;;;10.70;99.90;;;;;;5037588;28;20060;-77
2023/01/14 14:50:57;;;;;;;5.00;1.20;;;10.70;99.90;;;;;;5054453;28;20045;-77
2023/01/14 14:53:32;;;;;;;2.17;1.10;;;10.70;99.90;;;;;;5038213;28;20134;-78
2023/01/14 14:56:01;;;;;;;3.13;1.27;;;10.80;99.90;;;;;;5037486;28;20044;-77
2023/01/14 14:58:28;;;;;;;3.70;1.33;;;10.80;99.90;;;;;;5021446;28;20041;-77
2023/01/14 15:01:00;;;;;;;4.82;1.65;;;10.70;99.90;;;;;;4994825;28;20045;-77
2023/01/14 15:03:30;;;;;;;2.30;0.88;;;10.70;99.90;;;;;;5011433;28;20065;-77
2023/01/14 15:05:57;;;;;;;2.45;0.95;;;10.70;99.90;;;;;;5005358;28;20072;-77
2023/01/14 15:08:32;;;;;;;2.70;0.90;;;10.70;99.90;;;;;;5020732;28;20041;-77
2023/01/14 15:11:03;;;;;;;4.53;1.13;;;10.70;99.90;;;;;;5005639;28;20049;-77
2023/01/14 15:13:33;;;;;;;4.60;1.83;;;10.70;99.90;;;;;;5021238;28;20067;-77
2023/01/14 15:16:03;;;;;;;;;;;10.70;99.90;;;;;;5021507;28;20055;-78
2023/01/14 15:18:34;;;;;;;3.30;1.15;;;10.60;99.90;;;;;;5054488;28;20231;-78
2023/01/14 15:21:02;;;;;;;3.40;1.08;;;10.60;99.90;;;;;;5038137;28;20029;-78
2023/01/14 15:23:30;;;;;;;2.38;1.27;;;10.60;99.90;;;;;;5037568;28;20111;-77
2023/01/14 15:25:58;;;;;;;3.10;1.23;;;10.60;99.90;;;;;;5044575;28;20071;-78
2023/01/14 15:28:25;;;;;;;7.32;1.40;;;10.60;99.90;;;;;;5056399;28;20047;-77
2023/01/14 15:30:56;;;;;;;3.97;2.20;;;10.60;99.90;;;;;;5073610;28;20383;-78
2023/01/14 15:33:33;;;;;;;2.38;1.00;;;10.50;99.90;;;;;;5053828;28;20382;-78
2023/01/14 15:36:04;;;;;;;3.35;1.08;;;10.50;99.90;;;;;;5056047;28;20446;-77
2023/01/14 15:38:31;;;;;;;2.05;0.90;;;10.40;99.90;;;;;;5072789;28;20048;-77
2023/01/14 15:40:58;;;;;;;1.48;0.80;;;10.40;99.90;;;;;;5056544;28;20036;-78
2023/01/14 15:43:28;;;;;;;2.28;1.00;;;10.30;99.90;;;;;;5054991;28;20106;-77
2023/01/14 15:46:04;;;;;;;1.60;0.60;;;10.30;99.90;;;;;;5039818;28;20047;-77
2023/01/14 15:48:31;;;;;;;1.98;0.90;;;10.30;99.90;;;;;;5057070;28;20079;-77
2023/01/14 15:51:01;;;;;;;1.83;0.95;;;10.30;99.90;;;;;;5072857;28;20040;-77
2023/01/14 15:53:30;;;;;;;2.20;0.90;;;10.20;99.90;;;;;;5040102;28;20059;-77
2023/01/14 15:56:10;;;;;;;2.47;1.13;;;10.20;99.90;;;;;;5071839;28;20048;-77
2023/01/14 15:58:55;;;;;;;3.22;1.33;;;10.20;99.90;;;;;;5073791;28;20079;-77
2023/01/14 16:01:23;;;;;;;1.90;0.85;;;10.20;99.90;;;;;;5066481;28;20045;-77
2023/01/14 16:03:54;;;;;;;2.80;1.02;;;10.10;99.90;;;;;;5020420;28;20037;-77
2023/01/14 16:06:31;;;;;;;1.73;0.70;;;10.00;99.90;;;;;;5037220;28;20052;-78
2023/01/14 16:09:02;;;;;;;1.90;0.80;;;10.00;99.90;;;;;;5051718;28;20044;-77
2023/01/14 16:11:52;;;;;;;3.15;0.80;;;9.90;99.90;;;;;;5042696;28;20051;-77
2023/01/14 16:14:34;;;;;;;2.75;1.10;;;9.70;99.90;;;;;;5036738;28;20053;-77
2023/01/14 16:17:02;;;;;;;2.70;0.80;;;9.60;99.90;;;;;;5020753;28;20436;-77
2023/01/14 16:19:28;;;;;;;3.67;1.17;;;9.40;99.90;;;;;;5031062;28;20046;-79
2023/01/14 16:21:55;;;;;;;2.72;1.10;;;9.30;99.90;;;;;;5036393;28;20056;-76
2023/01/14 16:24:23;;;;;;;3.30;1.10;;;9.30;99.90;;;;;;5054161;28;20124;-77
2023/01/14 16:26:49;;;;;;;3.95;1.40;;;9.20;99.90;;;;;;5068412;28;20036;-76
2023/01/14 16:29:16;;;;;;;6.85;2.42;;;9.10;99.90;;;;;;5055979;28;20098;-76
2023/01/14 16:31:44;;;;;;;3.72;2.17;;;9.00;99.90;;;;;;5074228;28;20048;-76
2023/01/14 16:34:11;;;;;;;2.17;1.50;;;9.00;99.90;;;;;;5043767;28;20102;-76
2023/01/14 16:36:38;;;;;;;3.90;1.08;;;9.00;99.90;;;;;;5037943;28;20045;-75
2023/01/14 16:39:15;;;;;;;5.57;2.08;;;8.90;99.90;;;;;;5033584;28;20045;-76
2023/01/14 16:41:46;;;;;;;2.10;1.27;;;8.90;99.90;;;;;;5052857;28;20040;-76
2023/01/14 16:44:13;;;;;;;4.25;1.20;;;8.90;99.90;;;;;;5043641;28;20044;-76
2023/01/14 16:46:40;;;;;;;3.10;1.13;;;8.80;99.90;;;;;;4977845;28;20062;-75
2023/01/14 16:49:37;;;;;;;2.25;1.00;;;8.80;99.90;;;;;;5130953;27;20538;-75
2023/01/14 16:52:03;;;;;;;2.53;0.95;;;8.70;99.90;;;;;;5111971;28;20115;-75
2023/01/14 16:54:30;;;;;;;1.95;1.40;;;8.70;99.90;;;;;;5094228;28;20031;-75
2023/01/14 16:56:56;;;;;;;3.08;1.17;;;8.60;99.90;;;;;;5093249;28;20408;-77
2023/01/14 16:59:23;;;;;;;5.28;1.23;;;8.60;99.90;;;;;;5079651;28;20048;-76
2023/01/14 17:01:50;;;;;;;5.03;1.55;;;8.50;99.90;;;;;;5072617;28;20474;-75
2023/01/14 17:04:17;;;;;;;3.45;1.70;;;8.50;99.90;;;;;;5090524;28;20044;-76
2023/01/14 17:06:44;;;;;;;5.00;2.03;;;8.40;99.90;;;;;;5074231;28;20048;-75
2023/01/14 17:09:10;;;;;;;5.95;2.45;;;8.30;99.90;;;;;;5090171;28;20094;-76
2023/01/14 17:14:22;;;;;;;9.43;2.05;;;8.30;99.90;;;;;;5091128;28;20050;-75
2023/01/14 17:16:49;;;;;;;7.43;2.10;;;8.20;99.90;;;;;;5090658;28;20055;-76
2023/01/14 17:19:16;;;;;;;6.57;1.63;;;8.20;99.90;;;;;;5090846;28;20115;-76
2023/01/14 17:21:42;;;;;;;5.45;2.42;;;8.10;99.90;;;;;;5090457;28;20040;-76
2023/01/14 17:24:10;;;;;;;6.75;1.88;;;8.10;99.90;;;;;;5091074;28;20036;-76
2023/01/14 17:26:37;;;;;;;10.73;2.10;;;8.10;99.90;;;;;;5094020;28;20046;-77
2023/01/14 17:29:03;;;;;;;7.30;1.58;;;8.10;99.90;;;;;;5089485;28;20052;-78
2023/01/14 17:31:30;;;;;;;8.75;2.17;;;8.00;99.90;;;;;;5096297;28;20036;-76
2023/01/14 17:34:03;;;;;;;5.28;2.17;;;8.00;99.90;;;;;;5101511;28;20031;-76
2023/01/14 17:36:30;;;;;;;14.40;2.55;;;8.00;99.90;;;;;;5099784;28;20036;-76
2023/01/14 17:38:56;;;;;;;6.70;1.77;;;7.90;99.90;;;;;;5095355;28;20067;-77
2023/01/14 17:44:09;;;;;;;17.50;2.78;;;7.90;99.90;;;;;;5091872;28;20138;-77
2023/01/14 17:46:35;;;;;;;4.78;1.98;;;7.90;99.90;;;;;;5089557;28;20052;-76
2023/01/14 17:49:02;;;;;;;9.23;2.28;;;7.80;99.90;;;;;;5096450;28;20739;-77
2023/01/14 17:51:29;;;;;;;8.27;2.78;;;7.80;99.90;;;;;;5098527;28;20036;-78
2023/01/14 17:53:55;;;;;;;7.88;2.63;;;7.70;99.90;;;;;;5092202;28;20038;-78
2023/01/14 17:56:22;;;;;;;13.07;3.42;;;7.70;99.90;;;;;;5096476;28;20510;-76
2023/01/14 17:58:49;;;;;;;6.05;2.10;;;7.70;99.90;;;;;;5094541;28;20051;-76
2023/01/14 18:01:15;;;;;;;12.48;3.22;;;7.70;99.90;;;;;;5084170;28;20439;-77
2023/01/14 18:03:42;;;;;;;8.32;2.72;;;7.70;99.90;;;;;;5074028;28;20040;-77
2023/01/14 18:06:09;;;;;;;5.55;2.15;;;7.70;99.90;;;;;;5082192;28;20040;-77
2023/01/14 18:08:36;;;;;;;12.73;2.22;;;7.70;99.90;;;;;;5082557;28;20050;-76
2023/01/14 18:11:02;;;;;;;16.27;2.83;;;7.70;99.90;;;;;;5077131;28;20036;-76
2023/01/14 18:13:29;;;;;;;8.13;3.25;;;7.70;99.90;;;;;;5057885;28;20036;-76
2023/01/14 18:15:56;;;;;;;9.23;2.80;;;7.70;99.90;;;;;;5073591;28;20052;-77
2023/01/14 18:18:23;;;;;;;9.02;2.20;;;7.70;99.90;;;;;;5074707;28;20049;-76
2023/01/14 18:20:49;;;;;;;14.63;3.65;;;7.70;99.90;;;;;;5075563;28;20413;-77
2023/01/14 18:23:17;;;;;;;9.70;3.50;;;7.70;99.90;;;;;;5074445;28;20052;-78
2023/01/14 18:25:44;;;;;;;10.07;3.45;;;7.70;99.90;;;;;;5074161;28;20048;-76
2023/01/14 18:28:10;;;;;;;9.45;2.30;;;7.70;99.90;;;;;;5074874;28;20387;-77
2023/01/14 18:30:38;;;;;;;10.60;2.90;;;7.60;99.90;;;;;;5074456;28;20041;-77
2023/01/14 18:33:05;;;;;;;10.15;3.58;;;7.60;99.90;;;;;;5074967;28;20051;-77
2023/01/14 18:35:33;;;;;;;11.23;2.70;;;7.60;99.90;;;;;;5073224;28;20044;-76
2023/01/14 18:38:00;;;;;;;11.70;3.03;;;7.60;99.90;;;;;;5057703;28;20057;-77
2023/01/14 18:40:26;;;;;;;14.43;3.22;;;7.50;99.90;;;;;;5076668;28;20044;-76
2023/01/14 18:42:56;;;;;;;8.75;2.70;;;7.50;99.90;;;;;;5076858;28;20355;-76
2023/01/14 18:45:22;;;;;;;14.27;3.95;;;7.50;99.90;;;;;;5061186;28;20056;-76
2023/01/14 18:47:49;;;;;;;9.65;3.72;;;7.50;99.90;;;;;;5055961;28;20053;-77
2023/01/14 18:50:15;;;;;;;9.70;3.00;;;7.50;99.90;;;;;;5027022;28;20056;-75
2023/01/14 18:52:53;;;;;;;7.05;2.97;;;7.50;99.90;;;;;;5034815;28;20033;-75
2023/01/14 18:55:19;;;;;;;11.60;3.47;;;7.40;99.90;;;;;;5034822;28;20459;-75
2023/01/14 18:57:46;;;;;;;7.78;2.40;;;7.40;99.90;;;;;;5056223;28;20562;-76
2023/01/14 19:00:12;;;;;;;19.85;3.80;;;7.40;99.90;;;;;;5056443;28;20069;-74
2023/01/14 19:02:39;;;;;;;11.35;3.15;;;7.40;99.90;;;;;;5055484;28;20463;-75
2023/01/14 19:05:07;;;;;;;9.30;3.22;;;7.40;99.90;;;;;;5055879;28;20041;-77
2023/01/14 19:07:34;;;;;;;10.15;2.80;;;7.40;99.90;;;;;;5056141;28;20451;-76
2023/01/14 19:10:01;;;;;;;11.10;2.40;;;7.30;99.90;;;;;;5053108;28;20458;-75
2023/01/14 19:12:27;;;;;;;8.30;3.13;;;7.30;99.90;;;;;;5053334;28;20041;-75
2023/01/14 19:14:54;;;;;;;9.88;2.95;;;7.30;99.90;;;;;;5053951;28;20045;-76
2023/01/14 19:17:21;;;;;;;14.75;4.30;;;7.30;99.90;;;;;;5052399;28;20033;-75
2023/01/14 19:19:48;;;;;;;5.22;2.30;;;7.30;99.90;;;;;;5020046;28;20063;-74
2023/01/14 19:22:16;;;;;;;9.07;2.47;;;7.30;99.90;;;;;;5053029;28;20044;-75
2023/01/14 19:24:42;;;;;;;16.67;4.25;;;7.30;99.90;;;;;;5036043;28;20044;-75
2023/01/14 19:27:09;;;;;;;11.35;3.72;;;7.30;99.90;;;;;;5036747;28;20053;-76
2023/01/14 19:29:39;;;;;;;10.38;4.13;;;7.30;99.90;;;;;;5015100;28;20164;-76
2023/01/14 19:32:05;;;;;;;9.07;2.85;;;7.30;99.90;;;;;;5033402;28;20052;-76
2023/01/14 19:34:32;;;;;;;8.27;2.60;;;7.30;99.90;;;;;;5015958;28;20049;-74
2023/01/14 19:36:59;;;;;;;8.15;2.42;;;7.20;99.90;;;;;;5039857;28;20033;-74
2023/01/14 19:39:25;;;;;;;15.00;3.25;;;7.20;99.90;;;;;;5043184;28;20057;-75
2023/01/14 19:41:52;;;;;;;16.52;3.85;;;7.30;99.90;;;;;;5041063;28;20042;-76
2023/01/14 19:44:20;;;;;;;9.27;2.90;;;7.20;99.90;;;;;;5032741;28;20350;-74
2023/01/14 19:46:46;;;;;;;7.97;3.08;;;7.20;99.90;;;;;;5033475;28;20049;-75
2023/01/14 19:49:13;;;;;;;8.35;2.47;;;7.20;99.90;;;;;;5032635;28;20064;-75
2023/01/14 19:51:40;;;;;;;8.38;2.67;;;7.20;99.90;;;;;;5016264;28;20041;-76
2023/01/14 19:54:07;;;;;;;8.32;2.45;;;7.20;99.90;;;;;;5033279;28;20407;-76
2023/01/14 19:56:34;;;;;;;8.95;2.88;;;7.10;99.90;;;;;;5014806;28;20041;-74
2023/01/14 19:59:00;;;;;;;11.00;3.33;;;7.20;99.90;;;;;;5016029;28;20383;-75
2023/01/14 20:01:27;;;;;;;8.65;2.92;;;7.10;99.90;;;;;;5033320;28;20490;-76
2023/01/14 20:03:54;;;;;;;11.02;3.05;;;7.10;99.90;;;;;;5032027;28;20041;-75
2023/01/14 20:06:20;;;;;;;9.05;3.25;;;7.10;99.90;;;;;;5033277;28;20067;-75
2023/01/14 20:08:47;;;;;;;11.38;3.00;;;7.10;99.90;;;;;;5032626;28;20543;-76
2023/01/14 20:11:14;;;;;;;11.60;4.35;;;7.10;99.90;;;;;;5017107;28;20037;-76
2023/01/14 20:13:41;;;;;;;15.52;5.65;;;7.10;99.90;;;;;;5020829;28;20044;-75
2023/01/14 20:16:07;;;;;;;10.43;2.75;;;7.10;99.90;;;;;;5013862;28;20049;-77
2023/01/14 20:18:34;;;;;;;5.70;2.10;;;7.00;99.90;;;;;;5017356;28;20475;-76
2023/01/14 20:21:01;;;;;;;8.95;2.78;;;7.00;99.90;;;;;;5030187;28;20045;-76
2023/01/14 20:23:27;;;;;;;9.85;2.80;;;7.00;99.90;;;;;;5039936;28;20497;-73
2023/01/14 20:25:54;;;;;;;8.85;2.83;;;7.00;99.90;;;;;;5044389;28;20063;-75
2023/01/14 20:28:21;;;;;;;8.77;2.80;;;7.00;99.90;;;;;;5033463;28;20476;-76
2023/01/14 20:30:47;;;;;;;7.13;2.40;;;7.00;99.90;;;;;;5053339;28;20056;-77
2023/01/14 20:33:15;;;;;;;6.40;2.88;;;7.00;99.90;;;;;;5052856;28;20055;-74
2023/01/14 20:35:42;;;;;;;10.65;2.88;;;7.00;99.90;;;;;;5052433;28;20033;-75
2023/01/14 20:38:08;;;;;;;9.48;3.08;;;7.00;99.90;;;;;;5053356;28;20041;-77
2023/01/14 20:40:35;;;;;;;6.72;2.90;;;6.90;99.90;;;;;;5053098;28;20055;-74
2023/01/14 20:43:02;;;;;;;10.10;3.38;;;6.90;99.90;;;;;;5051984;28;20045;-75
2023/01/14 20:45:29;;;;;;;10.73;3.10;;;6.90;99.90;;;;;;5018746;28;20049;-75
2023/01/14 20:50:41;;;;;;;12.15;3.00;;;6.90;99.90;;;;;;5052720;28;20428;-76
2023/01/14 20:53:09;;;;;;;10.98;2.38;;;6.80;99.90;;;;;;5053141;28;20417;-75
2023/01/14 20:55:35;;;;;;;9.50;3.20;;;6.80;99.90;;;;;;5052026;28;20068;-75
2023/01/14 20:58:08;;;;;;;10.82;3.85;;;6.80;99.90;;;;;;5052467;28;20394;-75
2023/01/14 21:00:34;;;;;;;6.57;2.30;;;6.80;99.90;;;;;;5052885;28;20064;-74
2023/01/14 21:03:02;;;;;;;7.80;2.72;;;6.80;99.90;;;;;;5052253;28;20047;-75
2023/01/14 21:05:47;;;;;;;10.57;3.13;;;6.80;99.90;;;;;;5021812;28;20413;-77
2023/01/14 21:08:14;;;;;;;12.05;3.72;;;6.80;99.90;;;;;;5052928;28;20048;-77
2023/01/14 21:10:40;;;;;;;12.80;2.88;;;6.80;99.90;;;;;;5052127;28;20045;-77
2023/01/14 21:22:53;;;;;;;9.75;3.03;;;6.80;99.90;;;;;;5052806;28;20471;-77
2023/01/14 21:24:10;;;;;;;9.73;2.55;;;6.80;99.90;;;;;;5052052;28;20074;-76
2023/01/14 21:26:37;;;;;;;8.18;2.35;;;6.70;99.90;;;;;;5048535;28;20049;-74
2023/01/14 21:29:03;;;;;;;10.77;2.10;;;6.70;99.90;;;;;;5042610;28;20037;-76
2023/01/14 21:31:30;;;;;;;16.40;3.20;;;6.70;99.90;;;;;;5040642;28;20430;-76
2023/01/14 21:33:58;;;;;;;17.33;3.83;;;6.70;99.90;;;;;;5024656;28;20049;-76
2023/01/14 21:36:25;;;;;;;9.75;2.33;;;6.70;99.90;;;;;;5045468;28;20041;-77
2023/01/14 21:38:52;;;;;;;6.80;2.90;;;6.70;99.90;;;;;;5027461;28;20048;-76
2023/01/14 21:44:05;;;;;;;8.98;2.13;;;6.70;99.90;;;;;;5043053;28;20485;-77
2023/01/14 21:46:52;;;;;;;10.02;2.85;;;6.60;99.90;;;;;;5041640;28;20057;-77
2023/01/14 21:49:18;;;;;;;14.60;2.63;;;6.60;99.90;;;;;;5062563;28;20064;-78
2023/01/14 21:51:45;;;;;;;7.15;2.88;;;6.60;99.90;;;;;;5065453;28;20047;-76
2023/01/14 21:54:12;;;;;;;10.65;2.70;;;6.60;99.90;;;;;;5061848;28;20043;-76
2023/01/14 21:56:40;;;;;;;8.43;2.08;;;6.60;99.90;;;;;;5069144;28;20585;-76
2023/01/14 21:59:07;;;;;;;9.15;3.38;;;6.60;99.90;;;;;;5059476;28;20100;-78
2023/01/14 22:01:35;;;;;;;8.70;2.70;;;6.60;99.90;;;;;;5066597;28;20064;-77
2023/01/14 22:04:02;;;;;;;9.20;2.58;;;6.60;99.90;;;;;;5068383;28;20473;-77
2023/01/14 22:06:29;;;;;;;7.50;2.63;;;6.60;99.90;;;;;;5066670;28;20037;-78
2023/01/14 22:08:56;;;;;;;10.25;2.92;;;6.50;99.90;;;;;;5065661;28;20424;-78
2023/01/14 22:11:23;;;;;;;12.98;2.65;;;6.50;99.90;;;;;;5071975;28;20591;-78
2023/01/14 22:13:49;;;;;;;7.15;2.20;;;6.50;99.90;;;;;;5063577;28;20047;-79
2023/01/14 22:16:16;;;;;;;9.13;2.72;;;6.50;99.90;;;;;;5052544;28;20051;-77
2023/01/14 22:18:43;;;;;;;9.68;2.53;;;6.50;99.90;;;;;;5068239;28;20040;-76
2023/01/14 22:21:10;;;;;;;9.43;1.98;;;6.50;99.90;;;;;;5068325;28;20041;-78
2023/01/14 22:23:37;;;;;;;10.82;3.00;;;6.50;99.90;;;;;;5059120;28;20469;-77
2023/01/14 22:26:08;;;;;;;8.07;2.17;;;6.50;99.90;;;;;;5063210;28;20056;-76
2023/01/14 22:28:35;;;;;;;8.07;3.05;;;6.50;99.90;;;;;;5062826;28;20037;-78
2023/01/14 22:31:03;;;;;;;8.10;2.92;;;6.40;99.90;;;;;;5066797;28;20033;-77
2023/01/14 22:33:30;;;;;;;9.27;2.90;;;6.40;99.90;;;;;;5064298;28;20068;-77
2023/01/14 22:35:56;;;;;;;12.05;2.65;;;6.40;99.90;;;;;;5065391;28;20036;-77
2023/01/14 22:38:23;;;;;;;7.18;2.10;;;6.40;99.90;;;;;;5065185;28;20048;-78
2023/01/14 22:40:50;;;;;;;7.18;2.55;;;6.40;99.90;;;;;;5061097;28;20051;-77
2023/01/14 22:43:17;;;;;;;13.88;2.33;;;6.40;99.90;;;;;;5065295;28;20047;-78
2023/01/14 22:45:44;;;;;;;11.27;2.97;;;6.40;99.90;;;;;;5063872;28;20041;-78
2023/01/14 22:48:11;;;;;;;9.30;2.55;;;6.40;99.90;;;;;;5073334;28;20057;-76
2023/01/14 22:50:40;;;;;;;8.48;2.63;;;6.40;99.90;;;;;;5055531;28;20055;-77
2023/01/14 22:53:06;;;;;;;11.38;3.72;;;6.40;99.90;;;;;;5063970;28;20045;-76
2023/01/14 22:55:33;;;;;;;10.00;3.08;;;6.40;99.90;;;;;;5062146;28;20044;-76
2023/01/14 22:58:00;;;;;;;8.60;3.00;;;6.30;99.90;;;;;;5046571;28;20374;-78
2023/01/14 23:00:26;;;;;;;6.53;2.30;;;6.30;99.90;;;;;;5062767;28;20110;-75
2023/01/14 23:02:54;;;;;;;5.32;2.20;;;6.30;99.90;;;;;;5069695;28;20123;-75
2023/01/14 23:05:21;;;;;;;7.72;2.22;;;6.30;99.90;;;;;;5074576;28;20131;-76
2023/01/14 23:07:47;;;;;;;7.68;2.63;;;6.20;99.90;;;;;;5074845;28;20084;-75
2023/01/14 23:10:14;;;;;;;6.45;2.35;;;6.20;99.90;;;;;;5072976;28;20070;-75
2023/01/14 23:12:41;;;;;;;9.43;2.40;;;6.20;99.90;;;;;;5074920;28;20037;-76
2023/01/14 23:15:07;;;;;;;9.30;1.92;;;6.20;99.90;;;;;;5071013;28;20051;-77
2023/01/14 23:17:34;;;;;;;4.90;1.98;;;6.20;99.90;;;;;;5073966;28;20378;-77
2023/01/14 23:20:04;;;;;;;8.70;2.88;;;6.20;99.90;;;;;;5066135;28;20479;-77
2023/01/14 23:25:16;;;;;;;8.98;2.30;;;6.10;99.90;;;;;;5071686;28;20036;-77
2023/01/14 23:27:43;;;;;;;8.93;2.22;;;6.20;99.90;;;;;;5070276;28;20045;-76
2023/01/14 23:30:10;;;;;;;7.07;2.35;;;6.10;99.90;;;;;;5073333;28;20052;-77
2023/01/14 23:32:37;;;;;;;8.20;1.58;;;6.10;99.90;;;;;;5072573;28;20094;-77
2023/01/14 23:35:03;;;;;;;9.68;2.45;;;6.10;99.90;;;;;;5068413;28;20371;-77
2023/01/14 23:37:30;;;;;;;6.07;2.20;;;6.10;99.90;;;;;;5073195;28;20051;-77
2023/01/14 23:39:57;;;;;;;10.98;2.38;;;6.20;99.90;;;;;;5073876;28;20479;-79
2023/01/14 23:42:24;;;;;;;5.57;2.05;;;6.10;99.90;;;;;;5067136;28;20106;-77
2023/01/14 23:45:07;;;;;;;7.90;2.72;;;6.10;99.90;;;;;;5053594;28;20060;-78
2023/01/14 23:47:34;;;;;;;5.25;1.40;;;6.10;99.90;;;;;;5070268;28;20053;-78
2023/01/14 23:50:01;;;;;;;6.75;2.50;;;6.10;99.90;;;;;;5035422;28;20052;-78
2023/01/14 23:52:28;;;;;;;9.57;2.90;;;6.00;99.90;;;;;;5035406;28;20106;-79
2023/01/14 23:54:54;;;;;;;6.82;2.05;;;6.00;99.90;;;;;;5036250;28;20055;-77
2023/01/14 23:57:21;;;;;;;4.85;1.58;;;6.00;99.90;;;;;;5037657;28;20091;-79
2023/01/14 23:59:48;;;;;;;6.90;1.48;;;6.00;99.90;;;;;;5055593;28;20159;-79
